createdAt,value
2018-06-27T00:00:01.937Z,7.70
2018-06-27T00:02:30.865Z,6.90
2018-06-27T00:04:59.471Z,7.37
2018-06-27T00:07:28.438Z,6.87
2018-06-27T00:09:56.991Z,7.80
2018-06-27T00:12:25.966Z,9.10
2018-06-27T00:14:54.833Z,8.23
2018-06-27T00:17:23.464Z,7.57
2018-06-27T00:19:52.191Z,7.73
2018-06-27T00:22:20.944Z,6.63
2018-06-27T00:24:50.251Z,7.60
2018-06-27T00:27:19.001Z,6.53
2018-06-27T00:29:47.695Z,8.10
2018-06-27T00:32:17.160Z,6.87
2018-06-27T00:34:45.741Z,6.87
2018-06-27T00:37:15.147Z,7.07
2018-06-27T00:39:43.769Z,7.33
2018-06-27T00:42:12.712Z,7.87
2018-06-27T00:44:41.485Z,7.90
2018-06-27T00:47:10.243Z,8.20
2018-06-27T00:49:39.380Z,8.27
2018-06-27T00:52:08.628Z,7.97
2018-06-27T00:54:37.986Z,7.50
2018-06-27T00:57:07.862Z,6.57
2018-06-27T00:59:36.416Z,9.00
2018-06-27T01:02:05.072Z,7.47
2018-06-27T01:04:33.825Z,7.03
2018-06-27T01:07:02.374Z,7.60
2018-06-27T01:09:31.685Z,8.63
2018-06-27T01:12:00.481Z,6.77
2018-06-27T01:14:30.014Z,7.70
2018-06-27T01:16:58.866Z,8.30
2018-06-27T01:19:27.582Z,7.70
2018-06-27T01:21:56.755Z,7.67
2018-06-27T01:24:25.559Z,7.27
2018-06-27T01:26:54.216Z,7.93
2018-06-27T01:29:23.067Z,8.13
2018-06-27T01:31:51.772Z,8.00
2018-06-27T01:34:20.542Z,7.60
2018-06-27T01:36:49.163Z,7.60
2018-06-27T01:39:18.470Z,8.15
2018-06-27T01:41:47.290Z,7.73
2018-06-27T01:44:15.972Z,7.63
2018-06-27T01:46:44.715Z,8.80
2018-06-27T01:49:13.437Z,8.30
2018-06-27T01:51:42.183Z,7.55
2018-06-27T01:54:11.480Z,8.00
2018-06-27T01:56:40.282Z,8.50
2018-06-27T01:59:08.892Z,8.60
2018-06-27T02:01:37.564Z,8.63
2018-06-27T02:04:06.346Z,9.30
2018-06-27T02:06:35.047Z,8.40
2018-06-27T02:09:04.038Z,9.63
2018-06-27T02:11:32.932Z,8.20
2018-06-27T02:14:01.596Z,8.58
2018-06-27T02:16:30.207Z,10.10
2018-06-27T02:18:59.697Z,8.13
2018-06-27T02:21:29.036Z,7.73
2018-06-27T02:23:57.816Z,8.23
2018-06-27T02:26:26.522Z,9.57
2018-06-27T02:28:55.401Z,9.10
2018-06-27T02:31:24.080Z,9.40
2018-06-27T02:33:53.227Z,8.77
2018-06-27T02:36:21.756Z,9.03
2018-06-27T02:38:50.487Z,9.67
2018-06-27T02:41:19.446Z,7.87
2018-06-27T02:43:48.154Z,9.67
2018-06-27T02:46:16.999Z,9.60
2018-06-27T02:48:46.209Z,10.60
2018-06-27T02:51:15.396Z,9.58
2018-06-27T02:53:44.162Z,8.77
2018-06-27T02:56:13.071Z,7.63
2018-06-27T02:58:41.696Z,8.10
2018-06-27T03:01:10.685Z,8.90
2018-06-27T03:03:39.938Z,8.57
2018-06-27T03:06:08.695Z,8.68
2018-06-27T03:08:37.411Z,8.40
2018-06-27T03:11:06.527Z,8.70
2018-06-27T03:13:35.427Z,8.40
2018-06-27T03:16:04.032Z,8.50
2018-06-27T03:18:33.293Z,8.00
2018-06-27T03:21:02.083Z,7.70
2018-06-27T03:23:30.735Z,8.13
2018-06-27T03:25:59.410Z,7.93
2018-06-27T03:28:28.193Z,8.77
2018-06-27T03:30:57.083Z,8.33
2018-06-27T03:33:25.677Z,8.80
2018-06-27T03:35:54.536Z,8.70
2018-06-27T03:38:23.856Z,8.40
2018-06-27T03:40:52.507Z,8.80
2018-06-27T03:43:21.711Z,9.50
2018-06-27T03:45:50.443Z,8.37
2018-06-27T03:48:20.156Z,8.87
2018-06-27T03:50:49.499Z,8.30
2018-06-27T03:53:18.619Z,7.58
2018-06-27T03:55:47.731Z,8.77
2018-06-27T03:58:17.097Z,8.50
2018-06-27T04:00:46.054Z,9.73
2018-06-27T04:03:15.562Z,8.43
2018-06-27T04:05:44.218Z,7.57
2018-06-27T04:08:12.859Z,7.40
2018-06-27T04:10:41.921Z,8.77
2018-06-27T04:13:10.776Z,9.40
2018-06-27T04:15:39.447Z,7.73
2018-06-27T04:18:16.718Z,7.50
2018-06-27T04:20:45.536Z,6.65
2018-06-27T04:23:14.198Z,8.00
2018-06-27T04:25:42.908Z,7.90
2018-06-27T04:28:12.459Z,7.60
2018-06-27T04:30:42.701Z,7.40
2018-06-27T04:33:11.890Z,7.30
2018-06-27T04:35:40.796Z,8.13
2018-06-27T04:38:09.559Z,7.17
2018-06-27T04:40:38.302Z,6.80
2018-06-27T04:43:07.191Z,7.00
2018-06-27T04:45:36.086Z,7.50
2018-06-27T04:48:05.214Z,8.30
2018-06-27T04:50:33.945Z,6.57
2018-06-27T04:53:02.612Z,6.90
2018-06-27T04:55:31.603Z,6.97
2018-06-27T04:58:00.289Z,6.37
2018-06-27T05:00:29.096Z,7.73
2018-06-27T05:02:57.850Z,7.70
2018-06-27T05:05:26.795Z,7.67
2018-06-27T05:07:56.587Z,7.40
2018-06-27T05:10:25.427Z,7.10
2018-06-27T05:12:54.247Z,7.70
2018-06-27T05:15:23.061Z,7.90
2018-06-27T05:17:51.982Z,7.60
2018-06-27T05:20:20.876Z,8.40
2018-06-27T05:22:49.624Z,7.87
2018-06-27T05:25:18.451Z,8.17
2018-06-27T05:27:47.068Z,6.87
2018-06-27T05:30:15.957Z,7.73
2018-06-27T05:32:44.613Z,8.10
2018-06-27T05:35:13.610Z,7.95
2018-06-27T05:37:42.233Z,6.50
2018-06-27T05:43:13.902Z,7.60
2018-06-27T05:45:42.693Z,5.92
2018-06-27T05:48:11.640Z,7.03
2018-06-27T05:50:41.122Z,6.53
2018-06-27T05:53:10.004Z,7.83
2018-06-27T05:55:39.554Z,7.78
2018-06-27T05:58:08.346Z,7.50
2018-06-27T06:00:37.167Z,7.03
2018-06-27T06:03:06.331Z,6.87
2018-06-27T06:05:35.157Z,7.47
2018-06-27T06:08:04.397Z,6.80
2018-06-27T06:10:33.824Z,7.27
2018-06-27T06:13:03.308Z,7.60
2018-06-27T06:15:31.999Z,7.47
2018-06-27T06:18:00.672Z,7.55
2018-06-27T06:20:29.804Z,7.00
2018-06-27T06:22:58.675Z,6.95
2018-06-27T06:25:27.425Z,6.93
2018-06-27T06:27:56.813Z,7.40
2018-06-27T06:30:25.849Z,7.40
2018-06-27T06:32:55.177Z,7.43
2018-06-27T06:35:23.882Z,8.77
2018-06-27T06:37:52.516Z,8.97
2018-06-27T06:40:22.292Z,10.98
2018-06-27T06:42:51.052Z,10.70
2018-06-27T06:45:20.138Z,8.97
2018-06-27T06:47:49.068Z,7.83
2018-06-27T06:50:17.791Z,9.03
2018-06-27T06:52:47.178Z,8.83
2018-06-27T06:55:16.672Z,9.00
2018-06-27T06:57:45.339Z,9.40
2018-06-27T07:00:14.382Z,9.73
2018-06-27T07:02:43.117Z,9.13
2018-06-27T07:05:11.985Z,8.83
2018-06-27T07:07:40.669Z,9.57
2018-06-27T07:10:09.444Z,9.13
2018-06-27T07:12:38.551Z,8.73
2018-06-27T07:15:08.112Z,9.20
2018-06-27T07:17:37.202Z,9.87
2018-06-27T07:20:05.952Z,9.60
2018-06-27T07:22:34.534Z,10.23
2018-06-27T07:25:03.513Z,9.10
2018-06-27T07:27:32.158Z,8.70
2018-06-27T07:30:01.080Z,9.03
2018-06-27T07:32:29.752Z,8.35
2018-06-27T07:34:58.679Z,9.30
2018-06-27T07:37:27.549Z,8.18
2018-06-27T07:39:56.204Z,7.67
2018-06-27T07:42:25.447Z,7.33
2018-06-27T07:44:54.210Z,7.80
2018-06-27T07:47:22.933Z,8.17
2018-06-27T07:49:52.291Z,7.33
2018-06-27T07:52:20.958Z,7.33
2018-06-27T07:54:49.685Z,6.72
2018-06-27T07:57:18.790Z,7.50
2018-06-27T07:59:47.785Z,6.60
2018-06-27T08:02:16.444Z,6.10
2018-06-27T08:04:45.599Z,5.00
2018-06-27T08:07:14.854Z,4.87
2018-06-27T08:09:43.519Z,4.67
2018-06-27T08:12:12.185Z,4.50
2018-06-27T08:14:41.045Z,4.17
2018-06-27T08:17:10.579Z,3.73
2018-06-27T08:19:39.184Z,3.43
2018-06-27T08:22:08.090Z,3.12
2018-06-27T08:24:37.380Z,2.90
2018-06-27T08:27:07.430Z,2.80
2018-06-27T08:29:36.336Z,2.80
2018-06-27T08:32:05.018Z,2.60
2018-06-27T08:34:33.986Z,2.83
2018-06-27T08:37:02.719Z,2.40
2018-06-27T08:39:31.705Z,2.00
2018-06-27T08:42:00.528Z,3.25
2018-06-27T08:44:30.144Z,2.20
2018-06-27T08:46:58.768Z,2.35
2018-06-27T08:49:27.600Z,2.20
2018-06-27T08:51:56.376Z,2.02
2018-06-27T08:54:25.209Z,2.52
2018-06-27T08:56:54.148Z,2.20
2018-06-27T08:59:22.923Z,2.25
2018-06-27T09:01:51.794Z,2.70
2018-06-27T09:04:20.575Z,2.63
2018-06-27T09:06:49.160Z,3.08
2018-06-27T09:09:18.102Z,2.60
2018-06-27T09:11:46.825Z,3.08
2018-06-27T09:14:15.543Z,2.70
2018-06-27T09:16:45.188Z,2.85
2018-06-27T09:19:13.990Z,3.60
2018-06-27T09:21:42.600Z,3.40
2018-06-27T09:24:11.731Z,4.27
2018-06-27T09:26:40.639Z,4.60
2018-06-27T09:29:09.210Z,5.67
2018-06-27T09:31:37.944Z,5.70
2018-06-27T09:34:06.834Z,5.07
2018-06-27T09:36:35.925Z,4.55
2018-06-27T09:39:08.305Z,3.87
2018-06-27T09:41:37.169Z,4.35
2018-06-27T09:44:06.749Z,3.70
2018-06-27T09:46:36.319Z,3.70
2018-06-27T09:49:05.041Z,3.85
2018-06-27T09:51:34.435Z,3.08
2018-06-27T09:54:03.324Z,2.75
2018-06-27T09:56:32.775Z,2.92
2018-06-27T09:59:02.016Z,3.05
2018-06-27T10:01:31.455Z,2.62
2018-06-27T10:04:00.341Z,3.60
2018-06-27T10:06:29.227Z,3.15
2018-06-27T10:08:57.846Z,2.45
2018-06-27T10:11:26.685Z,2.70
2018-06-27T10:13:57.411Z,2.90
2018-06-27T10:16:26.065Z,2.67
2018-06-27T10:18:54.851Z,2.25
2018-06-27T10:21:23.519Z,2.72
2018-06-27T10:23:52.248Z,2.70
2018-06-27T10:26:21.660Z,2.10
2018-06-27T10:28:50.635Z,2.50
2018-06-27T10:31:19.508Z,1.95
2018-06-27T10:33:48.244Z,2.08
2018-06-27T10:36:18.079Z,1.95
2018-06-27T10:38:46.812Z,1.92
2018-06-27T10:41:15.404Z,2.60
2018-06-27T10:43:43.963Z,2.00
2018-06-27T10:46:12.864Z,1.50
2018-06-27T10:48:41.431Z,1.90
2018-06-27T10:51:10.348Z,3.58
2018-06-27T10:53:38.888Z,1.85
2018-06-27T10:56:07.512Z,1.80
2018-06-27T10:58:36.406Z,1.90
2018-06-27T11:01:05.600Z,1.72
2018-06-27T11:03:34.351Z,2.22
2018-06-27T11:06:03.107Z,2.30
2018-06-27T11:08:31.840Z,2.77
2018-06-27T11:11:00.609Z,2.58
2018-06-27T11:13:29.816Z,2.05
2018-06-27T11:15:58.629Z,2.12
2018-06-27T11:18:27.885Z,1.98
2018-06-27T11:20:56.580Z,2.15
2018-06-27T11:23:25.923Z,2.70
2018-06-27T11:25:54.896Z,2.37
2018-06-27T11:28:24.122Z,2.90
2018-06-27T11:30:52.990Z,3.27
2018-06-27T11:33:21.680Z,3.20
2018-06-27T11:35:50.479Z,3.50
2018-06-27T11:38:19.560Z,3.00
2018-06-27T11:40:48.320Z,3.10
2018-06-27T11:43:17.182Z,2.93
2018-06-27T11:45:45.870Z,2.40
2018-06-27T11:48:14.641Z,2.70
2018-06-27T11:50:44.197Z,2.40
2018-06-27T11:53:12.921Z,2.00
2018-06-27T11:55:41.704Z,1.50
2018-06-27T11:58:11.152Z,1.60
2018-06-27T12:00:40.099Z,1.77
2018-06-27T12:03:08.977Z,1.35
2018-06-27T12:05:37.653Z,1.33
2018-06-27T12:08:07.065Z,1.17
2018-06-27T12:10:35.985Z,1.22
2018-06-27T12:13:04.821Z,1.20
2018-06-27T12:15:33.620Z,1.40
2018-06-27T12:18:02.636Z,1.07
2018-06-27T12:20:31.646Z,1.27
2018-06-27T12:23:00.415Z,1.47
2018-06-27T12:25:29.316Z,1.00
2018-06-27T12:27:58.661Z,1.13
2018-06-27T12:30:28.038Z,1.33
2018-06-27T12:32:57.762Z,0.93
2018-06-27T12:35:26.424Z,1.13
2018-06-27T12:37:55.191Z,1.30
2018-06-27T12:40:23.815Z,1.03
2018-06-27T12:42:53.117Z,1.15
2018-06-27T12:45:21.829Z,1.20
2018-06-27T12:47:50.521Z,1.03
2018-06-27T12:50:20.084Z,1.40
2018-06-27T12:52:48.824Z,1.23
2018-06-27T12:55:17.495Z,1.33
2018-06-27T12:57:46.404Z,1.37
2018-06-27T13:00:15.269Z,1.30
2018-06-27T13:02:43.881Z,1.20
2018-06-27T13:05:12.727Z,1.80
2018-06-27T13:07:41.519Z,1.63
2018-06-27T13:10:10.630Z,1.70
2018-06-27T13:12:39.410Z,1.83
2018-06-27T13:15:08.260Z,0.95
2018-06-27T13:17:37.040Z,1.00
2018-06-27T13:20:06.109Z,1.30
2018-06-27T13:22:34.787Z,1.37
2018-06-27T13:25:03.561Z,1.90
2018-06-27T13:27:32.222Z,1.00
2018-06-27T13:30:00.844Z,1.47
2018-06-27T13:32:29.507Z,1.20
2018-06-27T13:34:59.035Z,1.20
2018-06-27T13:37:27.762Z,0.90
2018-06-27T13:39:56.477Z,1.20
2018-06-27T13:42:25.216Z,0.83
2018-06-27T13:44:53.917Z,1.63
2018-06-27T13:47:22.541Z,1.07
2018-06-27T13:49:51.265Z,1.30
2018-06-27T13:52:20.436Z,1.10
2018-06-27T13:54:55.941Z,0.98
2018-06-27T13:57:26.065Z,1.60
2018-06-27T13:59:55.282Z,3.27
2018-06-27T14:02:24.101Z,1.17
2018-06-27T14:04:53.022Z,1.23
2018-06-27T14:07:22.779Z,0.97
2018-06-27T14:09:51.791Z,0.90
2018-06-27T14:12:20.747Z,1.73
2018-06-27T14:14:49.576Z,0.97
2018-06-27T14:17:18.871Z,1.40
2018-06-27T14:19:47.680Z,1.23
2018-06-27T14:22:17.247Z,1.20
2018-06-27T14:24:46.244Z,1.40
2018-06-27T14:27:15.356Z,1.37
2018-06-27T14:29:44.174Z,1.10
2018-06-27T14:32:12.959Z,1.20
2018-06-27T14:34:42.330Z,1.30
2018-06-27T14:37:11.854Z,3.40
2018-06-27T14:39:40.639Z,1.00
2018-06-27T14:42:09.451Z,1.30
2018-06-27T14:44:38.180Z,1.10
2018-06-27T14:47:07.247Z,1.43
2018-06-27T14:49:36.478Z,1.10
2018-06-27T14:52:05.262Z,1.40
2018-06-27T14:54:34.396Z,1.17
2018-06-27T14:57:03.165Z,1.67
2018-06-27T14:59:32.416Z,1.40
2018-06-27T15:02:00.987Z,1.20
2018-06-27T15:04:29.940Z,1.20
2018-06-27T15:06:59.307Z,1.27
2018-06-27T15:09:28.359Z,1.43
2018-06-27T15:11:57.475Z,2.37
2018-06-27T15:14:26.467Z,1.40
2018-06-27T15:16:55.221Z,1.00
2018-06-27T15:19:24.179Z,1.20
2018-06-27T15:21:53.277Z,1.30
2018-06-27T15:24:21.960Z,1.10
2018-06-27T15:26:50.857Z,0.90
2018-06-27T15:29:19.741Z,1.43
2018-06-27T15:31:48.666Z,1.60
2018-06-27T15:34:17.606Z,1.27
2018-06-27T15:36:46.404Z,1.30
2018-06-27T15:39:15.108Z,1.90
2018-06-27T15:41:44.245Z,1.63
2018-06-27T15:44:13.348Z,1.40
2018-06-27T15:46:42.078Z,1.43
2018-06-27T15:49:11.177Z,1.13
2018-06-27T15:51:41.120Z,1.10
2018-06-27T15:54:10.713Z,1.10
2018-06-27T15:56:39.460Z,1.20
2018-06-27T15:59:08.900Z,1.20
2018-06-27T16:01:37.702Z,1.40
2018-06-27T16:04:06.448Z,1.47
2018-06-27T16:06:35.181Z,1.20
2018-06-27T16:09:04.668Z,1.00
2018-06-27T16:11:33.675Z,1.20
2018-06-27T16:14:03.252Z,0.90
2018-06-27T16:16:32.012Z,1.03
2018-06-27T16:19:01.842Z,1.30
2018-06-27T16:21:30.695Z,1.10
2018-06-27T16:23:59.652Z,1.67
2018-06-27T16:26:28.376Z,1.20
2018-06-27T16:28:57.222Z,1.20
2018-06-27T16:31:26.725Z,1.27
2018-06-27T16:33:55.688Z,1.70
2018-06-27T16:36:24.265Z,1.20
2018-06-27T16:38:53.257Z,1.30
2018-06-27T16:41:21.998Z,1.60
2018-06-27T16:43:50.950Z,1.67
2018-06-27T16:46:20.089Z,1.70
2018-06-27T16:48:49.026Z,1.20
2018-06-27T16:51:18.288Z,1.07
2018-06-27T16:53:47.296Z,1.47
2018-06-27T16:56:15.957Z,1.13
2018-06-27T16:58:45.247Z,1.07
2018-06-27T17:01:14.419Z,0.70
2018-06-27T17:03:43.372Z,1.00
2018-06-27T17:06:12.952Z,1.37
2018-06-27T17:08:41.838Z,1.20
2018-06-27T17:11:10.987Z,0.90
2018-06-27T17:13:39.832Z,3.03
2018-06-27T17:16:09.106Z,2.50
2018-06-27T17:18:38.218Z,1.30
2018-06-27T17:21:07.280Z,3.10
2018-06-27T17:23:36.579Z,2.13
2018-06-27T17:26:05.665Z,1.50
2018-06-27T17:28:34.402Z,7.53
2018-06-27T17:31:03.518Z,1.53
2018-06-27T17:33:32.442Z,1.40
2018-06-27T17:36:01.487Z,3.50
2018-06-27T17:38:30.531Z,3.77
2018-06-27T17:41:00.068Z,4.55
2018-06-27T17:43:28.992Z,2.80
2018-06-27T17:45:57.983Z,4.03
2018-06-27T17:48:26.923Z,5.43
2018-06-27T17:50:56.080Z,1.70
2018-06-27T17:53:25.171Z,1.20
2018-06-27T17:55:54.101Z,3.77
2018-06-27T17:58:22.928Z,2.23
2018-06-27T18:00:52.124Z,1.10
2018-06-27T18:03:21.178Z,1.80
2018-06-27T18:05:50.196Z,2.10
2018-06-27T18:08:19.412Z,2.00
2018-06-27T18:10:49.153Z,3.50
2018-06-27T18:13:18.023Z,2.75
2018-06-27T18:15:47.227Z,1.90
2018-06-27T18:18:16.096Z,3.45
2018-06-27T18:20:44.928Z,2.63
2018-06-27T18:23:14.331Z,8.95
2018-06-27T18:25:43.189Z,4.77
2018-06-27T18:28:12.023Z,4.33
2018-06-27T18:30:41.756Z,2.70
2018-06-27T18:33:11.002Z,2.73
2018-06-27T18:35:40.760Z,1.90
2018-06-27T18:38:09.950Z,7.93
2018-06-27T18:40:39.638Z,2.50
2018-06-27T18:43:09.021Z,2.90
2018-06-27T18:45:38.242Z,1.77
2018-06-27T18:48:07.783Z,1.47
2018-06-27T18:50:37.356Z,8.50
2018-06-27T18:53:06.746Z,1.70
2018-06-27T18:55:36.529Z,2.52
2018-06-27T18:58:06.031Z,2.00
2018-06-27T19:00:35.448Z,2.80
2018-06-27T19:03:04.895Z,1.57
2018-06-27T19:05:33.947Z,2.30
2018-06-27T19:08:03.396Z,2.03
2018-06-27T19:10:33.756Z,2.00
2018-06-27T19:13:02.977Z,2.03
2018-06-27T19:15:32.252Z,4.90
2018-06-27T19:18:01.588Z,2.00
2018-06-27T19:20:31.007Z,2.30
2018-06-27T19:23:00.153Z,2.40
2018-06-27T19:25:29.229Z,2.17
2018-06-27T19:27:58.517Z,2.57
2018-06-27T19:30:27.996Z,2.53
2018-06-27T19:32:57.889Z,1.70
2018-06-27T19:35:27.344Z,4.87
2018-06-27T19:37:56.526Z,1.90
2018-06-27T19:40:25.887Z,3.37
2018-06-27T19:42:55.119Z,1.73
2018-06-27T19:45:24.643Z,3.25
2018-06-27T19:47:54.011Z,2.07
2018-06-27T19:50:23.462Z,1.70
2018-06-27T19:52:52.838Z,2.60
2018-06-27T19:55:22.417Z,2.10
2018-06-27T19:57:51.683Z,2.00
2018-06-27T20:00:20.799Z,1.97
2018-06-27T20:02:50.188Z,4.53
2018-06-27T20:05:20.189Z,1.85
2018-06-27T20:07:49.717Z,1.40
2018-06-27T20:10:19.523Z,2.65
2018-06-27T20:12:48.745Z,1.60
2018-06-27T20:15:18.089Z,1.43
2018-06-27T20:17:47.241Z,1.70
2018-06-27T20:20:16.891Z,1.57
2018-06-27T20:22:46.384Z,2.33
2018-06-27T20:25:15.783Z,2.20
2018-06-27T20:27:45.341Z,1.60
2018-06-27T20:30:16.126Z,1.77
2018-06-27T20:32:45.695Z,1.80
2018-06-27T20:35:15.788Z,1.60
2018-06-27T20:37:44.956Z,1.70
2018-06-27T20:40:14.387Z,2.10
2018-06-27T20:42:44.234Z,1.67
2018-06-27T20:45:13.436Z,1.67
2018-06-27T20:47:42.741Z,2.00
2018-06-27T20:50:12.032Z,2.00
2018-06-27T20:52:41.926Z,4.00
2018-06-27T20:55:11.169Z,5.53
2018-06-27T20:57:40.429Z,1.90
2018-06-27T21:00:09.737Z,1.60
2018-06-27T21:02:38.962Z,1.50
2018-06-27T21:05:08.217Z,2.00
2018-06-27T21:07:37.373Z,2.00
2018-06-27T21:10:06.747Z,1.50
2018-06-27T21:12:36.042Z,2.00
2018-06-27T21:15:06.006Z,1.97
2018-06-27T21:17:35.430Z,2.33
2018-06-27T21:20:04.181Z,1.90
2018-06-27T21:22:33.047Z,1.92
2018-06-27T21:25:01.913Z,2.27
2018-06-27T21:27:31.053Z,1.93
2018-06-27T21:30:00.112Z,2.17
2018-06-27T21:32:29.672Z,2.27
2018-06-27T21:34:58.638Z,2.13
2018-06-27T21:37:27.798Z,2.50
2018-06-27T21:39:57.232Z,1.90
2018-06-27T21:42:25.932Z,1.90
2018-06-27T21:44:55.461Z,2.20
2018-06-27T21:47:24.199Z,1.93
2018-06-27T21:49:53.029Z,2.40
2018-06-27T21:52:22.441Z,2.40
2018-06-27T21:54:51.187Z,1.90
2018-06-27T21:57:19.827Z,2.13
2018-06-27T21:59:48.886Z,2.57
2018-06-27T22:02:17.713Z,2.40
2018-06-27T22:04:46.538Z,2.30
2018-06-27T22:07:15.500Z,2.43
2018-06-27T22:09:44.971Z,2.15
2018-06-27T22:12:14.017Z,2.30
2018-06-27T22:14:42.887Z,2.73
2018-06-27T22:17:12.399Z,2.63
2018-06-27T22:19:41.183Z,2.10
2018-06-27T22:22:09.889Z,2.37
2018-06-27T22:24:38.535Z,2.40
2018-06-27T22:27:07.423Z,2.30
2018-06-27T22:29:36.603Z,2.40
2018-06-27T22:32:06.097Z,2.27
2018-06-27T22:34:35.002Z,1.93
2018-06-27T22:37:04.373Z,2.27
2018-06-27T22:39:33.212Z,2.43
2018-06-27T22:42:02.786Z,2.42
2018-06-27T22:44:31.589Z,2.10
2018-06-27T22:47:01.167Z,2.30
2018-06-27T22:49:30.042Z,2.40
2018-06-27T22:51:58.883Z,2.10
2018-06-27T22:54:27.891Z,2.17
2018-06-27T22:56:58.917Z,2.33
2018-06-27T22:59:28.174Z,2.50
2018-06-27T23:01:57.457Z,2.27
2018-06-27T23:04:26.667Z,2.13
2018-06-27T23:06:55.323Z,2.53
2018-06-27T23:09:24.133Z,2.80
2018-06-27T23:11:53.484Z,2.73
2018-06-27T23:14:22.478Z,3.00
2018-06-27T23:16:51.465Z,2.27
2018-06-27T23:19:21.093Z,2.63
2018-06-27T23:21:49.658Z,2.53
2018-06-27T23:24:18.497Z,2.43
2018-06-27T23:26:47.709Z,2.80
2018-06-27T23:29:16.662Z,2.53
2018-06-27T23:31:45.502Z,2.60
2018-06-27T23:34:15.353Z,2.80
2018-06-27T23:36:44.802Z,2.85
2018-06-27T23:39:15.112Z,3.30
2018-06-27T23:41:44.227Z,2.90
2018-06-27T23:44:13.202Z,2.83
2018-06-27T23:46:42.118Z,2.87
2018-06-27T23:49:11.682Z,2.60
2018-06-27T23:51:41.143Z,2.87
2018-06-27T23:54:10.169Z,2.77
2018-06-27T23:56:38.733Z,2.50
2018-06-27T23:59:07.411Z,2.87
